| time (UTC) | temp F | wind direction | speed knots | gust knots | rain 1hr in | rain 24hr in | rain mn in | humidity % | barometer mb |
| 20260504040016 | 53 | 225 | 2.6 | 6.1 | 0.00 | 0.04 | 0.00 | 96 | 1012.9 |
| 20260504033016 | 54 | 225 | 0.9 | 5.2 | 0.00 | 0.04 | 0.00 | 95 | 1013.1 |
| 20260504030016 | 54 | 203 | 0.9 | 2.6 | 0.00 | 0.04 | 0.00 | 95 | 1013.1 |
| 20260504023016 | 54 | 180 | 0.9 | 4.3 | 0.00 | 0.04 | 0.00 | 95 | 1013.2 |
| 20260504020017 | 54 | 225 | 0.9 | 1.7 | 0.00 | 0.04 | 0.00 | 95 | 1013.3 |
| 20260504013016 | 55 | 203 | 1.7 | 4.3 | 0.00 | 0.04 | 0.00 | 95 | 1013.6 |
| 20260504010016 | 55 | 248 | 1.7 | 4.3 | 0.00 | 0.04 | 0.00 | 95 | 1013.8 |
| 20260504003036 | 55 | 225 | 2.6 | 5.2 | 0.00 | 0.04 | 0.00 | 94 | 1014.0 |
| 20260504000016 | 55 | 225 | 1.7 | 5.2 | 0.00 | 0.04 | 0.00 | 95 | 1014.1 |
| 20260503233016 | 55 | 203 | 0.9 | 3.5 | 0.00 | 0.04 | 0.00 | 94 | 1014.4 |
| 20260503230016 | 56 | 203 | 0.0 | 1.7 | 0.00 | 0.04 | 0.00 | 94 | 1014.9 |
| 20260503223016 | 56 | 203 | 0.9 | 3.5 | 0.00 | 0.04 | 0.00 | 94 | 1015.1 |
| 20260503220016 | 56 | 180 | 0.9 | 2.6 | 0.00 | 0.04 | 0.04 | 94 | 1015.3 |
| 20260503213016 | 56 | 203 | 0.9 | 1.7 | 0.00 | 0.04 | 0.04 | 94 | 1015.2 |
| 20260503210016 | 56 | 203 | 0.0 | 1.7 | 0.00 | 0.04 | 0.04 | 93 | 1015.4 |
| 20260503203016 | 56 | 203 | 0.0 | 0.9 | 0.00 | 0.04 | 0.04 | 93 | 1015.2 |
| 20260503200016 | 56 | 203 | 0.0 | 1.7 | 0.00 | 0.04 | 0.04 | 93 | 1014.8 |
| 20260503193016 | 57 | 203 | 0.9 | 3.5 | 0.00 | 0.04 | 0.04 | 93 | 1014.4 |
| 20260503190016 | 57 | 203 | 0.9 | 3.5 | 0.00 | 0.04 | 0.04 | 92 | 1014.3 |
| 20260503183015 | 58 | 338 | 0.0 | 3.5 | 0.01 | 0.04 | 0.04 | 91 | 1014.1 |
| 20260503180015 | 59 | 135 | 0.0 | 0.9 | 0.02 | 0.04 | 0.04 | 89 | 1014.0 |
| 20260503173017 | 60 | 203 | 0.9 | 3.5 | 0.03 | 0.03 | 0.03 | 90 | 1013.7 |
| 20260503053016 | 53 | 203 | 0.9 | 3.5 | 0.00 | 0.00 | 0.00 | 86 | 1016.3 |
| 20260503050016 | 53 | 203 | 0.0 | 1.7 | 0.00 | 0.00 | 0.00 | 84 | 1016.3 |
| 20260503043016 | 54 | 203 | 0.0 | 1.7 | 0.00 | 0.00 | 0.00 | 85 | 1016.7 |